Weott, CA

8:25 PM PST on December 09, 2016 (GMT -0800)
Town of Scotia | | Change Station

Elev 154 ft 40.48 °N, 124.10 °W | Updated 4 seconds ago

Rain
Rain
54.3 °F
Feels Like 54.3 °F
N
0.0
Wind Variable Wind from SSW
Gusts 0.0 mph

Today
High -- | Low -- °F
--% Chance of Precip.
Yesterday
High -- | Low -- °F
Precip. -- in
Pressure 30.03 in
Visibility 6.0 miles
Clouds Few 2800 ft
Scattered Clouds 3500 ft
Mostly Cloudy 5500 ft
Dew Point 22 °F
Humidity 28%
Rainfall 0.40 in
Snow Depth Not available.
7:27 AM 4:49 PM
Waxing Gibbous, 80% visible
METAR KFOT 100415Z AUTO 11006KT 6SM FEW028 SCT035 BKN055 12/12 A3003 RMK AO1 P0002
Pressure 30.03 in
Visibility 6.0 miles
Clouds Few 2800 ft
Scattered Clouds 3500 ft
Mostly Cloudy 5500 ft
Dew Point 22 °F
Humidity 28%
Rainfall 0.40 in
Snow Depth Not available.
7:27 AM 4:49 PM
Waxing Gibbous, 80% visible
METAR KFOT 100415Z AUTO 11006KT 6SM FEW028 SCT035 BKN055 12/12 A3003 RMK AO1 P0002

10-Day Weather Forecast

Almanac

Astronomy

Dec. 09, 2016 Rise Set
Actual Time
Civil Twilight
Nautical Twilight
Astronomical Twilight
Moon
Length of Visible Light
Length of Day
Tomorrow will be .
, % of the Moon is Illuminated

Today's Extremes

State Highs State Lows

Community

WunderPhotos

Upload Photos

1,956,529 photos uploaded!

WunderBlog® & News

Nearby

Air Quality

  Air Quality AQ Index Pollutant
Not available.

Snow Depth

Station Depth Elevation

Earthquake Activity

City Distance Mag. Time & Date
Minimum magnitude displayed is 2.5.

Coastal Water Temperatures

Place Temperature

Stations

Nearby Weather Stations

Station Location Temp. Windchill Dew Point Humidity Wind Precip. Elev Updated Type
                   

Watches & Warnings

There are currently no watches in effect.